KNRB/NRB METAR and TAF weather

Enter ICAO airport designator
Station Type Date Time Source
KNRB METAR 2021/05/11 15:52 UTC NOAA

KNRB 111552Z VRB04KT 10SM FEW030 BKN090 OVC250 29/21 A3009 RMK AO2 SLP189 T02940206


Station Type Date Time Source
KNRB Decoded METAR 2021/05/11 15:52 UTC NOAA

MAYPORT NAVAL AIR FACILITY, FL, United States (KNRB) 30-24N 81-25W 4M
May 11, 2021 - 11:52 AM EDT / 2021.05.11 1552 UTC
Wind: Variable at 5 MPH (4 KT):0
Visibility: 10 mile(s):0
Sky conditions: overcast
Temperature: 84.9 F (29.4 C)
Dew Point: 69.1 F (20.6 C)
Relative Humidity: 59%
Pressure (altimeter): 30.09 in. Hg (1018 hPa)
ob: KNRB 111552Z VRB04KT 10SM FEW030 BKN090 OVC250 29/21 A3009 RMK AO2 SLP189 T02940206
cycle: 16

Station Type Date Time Source
KNRB TAF 2021/05/11 15:03 UTC NOAA

TAF KNRB 1115/1215 26010KT 9999 SCT030 SCT100 BKN250 QNH3003INS
FM111800 15010G20KT 9999 VCTS SCT040CB BKN100 OVC250 QNH2997INS
TEMPO 1119/1200 VRB25G35KT 2400 -TSRA BKN010 OVC025CB
FM120100 21005KT 9999 VCSH FEW020 SCT025 BKN250 QNH3001INS
FM120400 25005KT 9999 FEW025 SCT200 QNH3003INS T29/1119Z T20/1211Z FN20022

Example: see airport list